Time;durP1;ratioP1;P1;durP2;ratioP2;P2;SDS_P1;SDS_P2;PMS_P1;PMS_P2;Temp;Humidity;BMP_temperature;BMP_pressure;BME280_temperature;BME280_humidity;BME280_pressure;Samples;Min_cycle;Max_cycle;Signal;HPM_P1;HPM_P2
2022/01/08 00:01:47;;;;;;;23.25;6.18;;;28.80;70.70;;;;;;5064195;28;20025;-54
2022/01/08 00:04:14;;;;;;;33.78;6.90;;;28.80;70.50;;;;;;5063736;28;20047;-45
2022/01/08 00:06:40;;;;;;;25.10;6.85;;;28.80;70.30;;;;;;5064442;28;20033;-46
2022/01/08 00:09:07;;;;;;;24.52;6.43;;;28.80;69.90;;;;;;5061723;28;20056;-43
2022/01/08 00:11:35;;;;;;;44.42;8.13;;;28.80;69.70;;;;;;5050211;28;20318;-47
2022/01/08 00:14:06;;;;;;;69.80;7.60;;;28.70;69.30;;;;;;5047441;28;20048;-54
2022/01/08 00:16:45;;;;;;;29.20;7.05;;;28.70;69.10;;;;;;5066066;28;20020;-46
2022/01/08 00:19:11;;;;;;;38.65;21.38;;;28.70;69.00;;;;;;5066047;28;20035;-44
2022/01/08 00:21:38;;;;;;;157.82;56.00;;;28.60;68.90;;;;;;5065405;28;20040;-46
2022/01/08 00:24:05;;;;;;;215.10;193.07;;;28.60;68.80;;;;;;5065195;28;20048;-46
2022/01/08 00:26:32;;;;;;;92.93;78.38;;;28.60;68.90;;;;;;5058336;28;20051;-54
2022/01/08 00:29:07;;;;;;;58.45;38.55;;;28.60;68.70;;;;;;5027716;28;20116;-55
2022/01/08 00:31:37;;;;;;;34.80;24.25;;;28.60;68.50;;;;;;5045272;28;20083;-44
2022/01/08 00:34:13;;;;;;;24.50;15.05;;;28.60;68.50;;;;;;5045105;28;20247;-46
2022/01/08 00:36:43;;;;;;;19.38;11.27;;;28.50;68.40;;;;;;5027472;28;20021;-49
2022/01/08 00:39:10;;;;;;;21.88;10.75;;;28.50;68.50;;;;;;5027434;28;20022;-45
2022/01/08 00:41:42;;;;;;;21.63;8.60;;;28.50;68.50;;;;;;5045526;28;20025;-48
2022/01/08 00:44:16;;;;;;;19.45;7.40;;;28.50;68.50;;;;;;5029982;28;20021;-49
2022/01/08 00:46:42;;;;;;;30.55;7.65;;;28.40;68.50;;;;;;5058892;28;20191;-43
2022/01/08 00:49:09;;;;;;;18.30;6.63;;;28.40;68.50;;;;;;5058301;28;20021;-43
2022/01/08 00:51:36;;;;;;;23.17;7.13;;;28.40;68.50;;;;;;5047393;28;20096;-48
2022/01/08 00:54:02;;;;;;;21.40;6.90;;;28.40;68.50;;;;;;5069824;28;20055;-47
2022/01/08 00:56:29;;;;;;;18.05;6.72;;;28.40;68.50;;;;;;5052803;28;20250;-51
2022/01/08 00:58:56;;;;;;;17.27;5.85;;;28.40;68.60;;;;;;5054441;28;20025;-46
2022/01/08 01:01:22;;;;;;;18.13;5.80;;;28.30;68.50;;;;;;5054093;28;20019;-56
2022/01/08 01:03:49;;;;;;;18.83;6.03;;;28.30;68.50;;;;;;5059298;28;20106;-44
2022/01/08 01:06:16;;;;;;;22.58;6.30;;;28.30;68.50;;;;;;5051869;28;20021;-43
2022/01/08 01:08:43;;;;;;;17.77;5.70;;;28.30;68.40;;;;;;5044462;28;20187;-46
2022/01/08 01:11:09;;;;;;;16.17;5.10;;;28.20;68.30;;;;;;5026735;28;20025;-49
2022/01/08 01:13:37;;;;;;;18.48;5.90;;;28.20;68.40;;;;;;5044420;28;20128;-47
2022/01/08 01:16:04;;;;;;;23.77;5.72;;;28.20;68.40;;;;;;5026013;28;20028;-45
2022/01/08 01:18:31;;;;;;;10.25;5.43;;;28.20;68.40;;;;;;5026605;28;20124;-48
2022/01/08 01:20:58;;;;;;;15.55;6.05;;;28.20;68.40;;;;;;5043422;28;20029;-51
2022/01/08 01:23:33;;;;;;;14.23;5.93;;;28.10;68.30;;;;;;5044108;28;20029;-54
2022/01/08 01:26:03;;;;;;;10.50;5.55;;;28.10;68.20;;;;;;5043771;28;20322;-47
2022/01/08 01:47:37;;;;;;;14.77;5.38;;;28.00;68.00;;;;;;5044552;28;20081;-46
2022/01/08 01:50:08;;;;;;;14.13;5.90;;;28.00;68.00;;;;;;5026003;28;20222;-44
2022/01/08 01:52:37;;;;;;;10.60;5.15;;;27.90;67.90;;;;;;5031825;28;20017;-50
2022/01/08 01:55:11;;;;;;;19.25;5.63;;;27.90;68.00;;;;;;5061948;28;20017;-50
2022/01/08 01:57:40;;;;;;;14.05;5.90;;;27.90;68.00;;;;;;5063960;28;20016;-49
2022/01/08 02:00:08;;;;;;;15.23;5.60;;;28.00;67.90;;;;;;5062406;28;20242;-51
2022/01/08 02:02:35;;;;;;;13.98;6.43;;;28.00;67.80;;;;;;5052850;28;20021;-46
2022/01/08 02:05:01;;;;;;;16.20;6.78;;;28.00;67.80;;;;;;5063276;28;20025;-47
2022/01/08 02:07:28;;;;;;;14.25;7.35;;;28.00;67.70;;;;;;5063318;28;20029;-48
2022/01/08 02:09:56;;;;;;;15.80;7.03;;;28.00;67.70;;;;;;5063134;28;20043;-47
2022/01/08 02:12:23;;;;;;;16.20;7.47;;;28.10;67.80;;;;;;5063283;28;20021;-49
2022/01/08 02:14:50;;;;;;;17.50;8.10;;;28.10;67.70;;;;;;5061479;28;20070;-51
2022/01/08 02:17:18;;;;;;;22.65;7.88;;;28.10;67.70;;;;;;5064056;28;20027;-45
2022/01/08 02:19:47;;;;;;;13.63;7.15;;;28.10;67.80;;;;;;5063698;28;20021;-47
2022/01/08 02:22:17;;;;;;;14.70;6.90;;;28.10;67.80;;;;;;5064370;28;20017;-52
2022/01/08 02:24:51;;;;;;;11.05;6.47;;;28.10;67.70;;;;;;5064690;28;20256;-54
2022/01/08 02:27:21;;;;;;;13.27;6.13;;;28.10;67.70;;;;;;5046815;28;20115;-46
2022/01/08 02:29:54;;;;;;;15.80;5.88;;;28.10;67.70;;;;;;5063709;28;20044;-49
2022/01/08 02:32:26;;;;;;;13.00;6.10;;;28.10;67.70;;;;;;5063618;28;20075;-43
2022/01/08 02:34:53;;;;;;;15.52;5.80;;;28.10;67.80;;;;;;5063680;28;20031;-48
2022/01/08 02:37:29;;;;;;;11.00;5.40;;;28.00;67.70;;;;;;5063457;28;20101;-43
2022/01/08 02:39:56;;;;;;;11.68;5.60;;;28.00;67.70;;;;;;5046044;28;20020;-45
2022/01/08 02:42:26;;;;;;;15.55;5.63;;;28.00;67.80;;;;;;5063482;28;20025;-46
2022/01/08 02:44:53;;;;;;;18.42;5.88;;;28.00;67.70;;;;;;5044807;28;20017;-47
2022/01/08 02:47:22;;;;;;;13.60;5.20;;;28.00;67.80;;;;;;5038490;28;20029;-45
2022/01/08 02:49:54;;;;;;;11.00;5.28;;;27.90;67.60;;;;;;5041549;28;20085;-42
2022/01/08 02:52:24;;;;;;;12.07;5.32;;;27.80;67.60;;;;;;5043516;28;20030;-48
2022/01/08 02:54:51;;;;;;;10.15;5.15;;;27.80;67.80;;;;;;5043566;28;20039;-47
2022/01/08 02:57:17;;;;;;;8.15;5.20;;;27.80;67.70;;;;;;5043839;28;20188;-50
2022/01/08 02:59:44;;;;;;;8.45;5.00;;;27.80;67.70;;;;;;5053081;28;20357;-46
2022/01/08 03:02:11;;;;;;;7.43;5.07;;;27.80;67.70;;;;;;5053287;28;20053;-55
2022/01/08 03:04:37;;;;;;;7.63;5.00;;;27.80;67.70;;;;;;5049920;28;20245;-42
2022/01/08 03:07:04;;;;;;;10.73;5.35;;;27.80;67.70;;;;;;5054872;28;20010;-45
2022/01/08 03:09:35;;;;;;;6.18;5.28;;;27.70;67.60;;;;;;5053102;28;20060;-45
2022/01/08 03:12:02;;;;;;;9.40;4.97;;;27.70;67.70;;;;;;5054833;28;20060;-41
2022/01/08 03:14:29;;;;;;;7.47;5.18;;;27.70;67.70;;;;;;5054742;28;20027;-51
2022/01/08 03:16:55;;;;;;;15.55;5.78;;;27.70;67.60;;;;;;5049917;28;20017;-46
2022/01/08 03:19:23;;;;;;;13.38;5.47;;;27.70;67.60;;;;;;5051524;28;20017;-45
2022/01/08 03:21:53;;;;;;;16.60;5.10;;;27.80;67.70;;;;;;5066629;28;20205;-43
2022/01/08 03:24:27;;;;;;;9.95;5.50;;;27.80;67.60;;;;;;5066209;28;20021;-45
2022/01/08 03:26:54;;;;;;;7.75;4.97;;;27.80;67.70;;;;;;5066128;28;20058;-46
2022/01/08 03:29:21;;;;;;;9.38;4.80;;;27.80;67.60;;;;;;5066221;28;20040;-43
2022/01/08 03:31:49;;;;;;;7.78;4.68;;;27.80;67.50;;;;;;5065764;28;20016;-50
2022/01/08 03:34:16;;;;;;;6.40;5.00;;;27.80;67.60;;;;;;5066006;28;20087;-46
2022/01/08 03:36:43;;;;;;;7.57;5.13;;;27.90;67.60;;;;;;5048606;28;20348;-45
2022/01/08 03:39:10;;;;;;;7.63;5.35;;;27.90;67.50;;;;;;5066299;28;20300;-48
2022/01/08 03:41:42;;;;;;;7.18;5.15;;;27.90;67.40;;;;;;5048590;28;20230;-52
2022/01/08 03:44:08;;;;;;;;;;;27.90;67.40;;;;;;5066886;28;20028;-51
2022/01/08 03:46:36;;;;;;;8.02;5.35;;;27.90;67.40;;;;;;5065706;28;19901;-47
2022/01/08 03:51:32;;;;;;;7.15;5.20;;;27.90;67.50;;;;;;5065896;28;20080;-46
2022/01/08 03:53:59;;;;;;;6.03;4.90;;;27.90;67.40;;;;;;5066131;28;20039;-49
2022/01/08 03:56:27;;;;;;;8.38;5.22;;;27.90;67.40;;;;;;5065890;28;20249;-46
2022/01/08 03:58:54;;;;;;;12.77;5.35;;;27.90;67.30;;;;;;5066302;28;20021;-44
2022/01/08 04:01:20;;;;;;;9.32;5.38;;;27.90;67.40;;;;;;5065528;28;20021;-44
2022/01/08 04:03:47;;;;;;;7.43;5.47;;;27.90;67.40;;;;;;5066148;28;20039;-50
2022/01/08 04:06:14;;;;;;;12.00;5.93;;;27.90;67.50;;;;;;5065505;28;20020;-47
2022/01/08 04:08:40;;;;;;;9.50;5.60;;;27.90;67.60;;;;;;5065766;28;20048;-45
2022/01/08 04:11:07;;;;;;;11.38;5.80;;;27.90;67.70;;;;;;5064520;28;20221;-44
2022/01/08 04:13:37;;;;;;;8.45;5.20;;;27.90;67.70;;;;;;5065783;28;20036;-55
2022/01/08 04:16:12;;;;;;;13.10;6.05;;;27.90;67.80;;;;;;5065291;28;20017;-54
2022/01/08 04:18:39;;;;;;;11.98;5.80;;;27.90;67.80;;;;;;5065845;28;20049;-49
2022/01/08 04:23:50;;;;;;;14.23;5.90;;;27.90;67.90;;;;;;5065755;28;20070;-45
2022/01/08 04:26:17;;;;;;;8.27;5.68;;;27.90;68.10;;;;;;5065203;28;20313;-43
2022/01/08 04:28:44;;;;;;;9.55;6.03;;;27.80;68.10;;;;;;5065411;28;20092;-48
2022/01/08 04:31:11;;;;;;;9.65;5.75;;;27.80;68.10;;;;;;5065038;28;20244;-47
2022/01/08 04:33:38;;;;;;;9.45;5.88;;;27.80;68.20;;;;;;5047106;28;20095;-46
2022/01/08 04:36:04;;;;;;;12.82;5.85;;;27.80;68.70;;;;;;5064857;28;20025;-48
2022/01/08 04:38:32;;;;;;;9.77;6.13;;;27.80;68.20;;;;;;5065257;28;20047;-44
2022/01/08 04:40:59;;;;;;;10.15;5.72;;;27.80;68.20;;;;;;5064780;28;20021;-50
2022/01/08 04:43:25;;;;;;;11.65;5.68;;;27.80;68.10;;;;;;5065059;28;20100;-47
2022/01/08 04:45:52;;;;;;;13.60;5.75;;;27.80;68.10;;;;;;5064802;28;20066;-48
2022/01/08 04:48:21;;;;;;;9.23;5.97;;;27.80;68.10;;;;;;5065068;28;20040;-44
2022/01/08 04:50:48;;;;;;;10.15;5.60;;;27.80;68.20;;;;;;5046700;28;20028;-52
2022/01/08 04:53:15;;;;;;;8.63;5.53;;;27.80;68.30;;;;;;5046999;28;20021;-44
2022/01/08 04:55:41;;;;;;;9.90;5.90;;;27.80;68.30;;;;;;5064702;28;20409;-45
2022/01/08 04:58:08;;;;;;;11.63;5.72;;;27.80;68.30;;;;;;5064766;28;20032;-51
2022/01/08 05:00:36;;;;;;;10.43;5.55;;;27.70;68.20;;;;;;5064506;28;20017;-43
2022/01/08 05:03:03;;;;;;;6.88;5.95;;;27.70;68.30;;;;;;5064715;28;20136;-46
2022/01/08 05:05:30;;;;;;;9.80;5.60;;;27.70;68.40;;;;;;5064310;28;20044;-54
2022/01/08 05:07:56;;;;;;;7.43;5.60;;;27.70;68.50;;;;;;5064598;28;20059;-45
2022/01/08 05:10:23;;;;;;;13.50;5.72;;;27.70;68.50;;;;;;5064308;28;20017;-44
2022/01/08 05:12:50;;;;;;;7.85;5.72;;;27.70;68.40;;;;;;5064345;28;20036;-47
2022/01/08 05:15:17;;;;;;;6.43;5.20;;;27.70;68.60;;;;;;5064260;28;20017;-49
2022/01/08 05:17:47;;;;;;;14.57;6.05;;;27.70;68.70;;;;;;5064327;28;20325;-44
2022/01/08 05:20:14;;;;;;;11.45;6.10;;;27.70;68.70;;;;;;5064037;28;20021;-50
2022/01/08 05:25:14;;;;;;;10.23;5.65;;;27.70;68.50;;;;;;5064052;28;20031;-47
2022/01/08 05:27:41;;;;;;;7.20;5.00;;;27.70;68.50;;;;;;5064075;28;20033;-45
2022/01/08 05:30:08;;;;;;;8.73;5.70;;;27.70;68.50;;;;;;5063923;28;20017;-45
2022/01/08 05:32:35;;;;;;;8.90;5.60;;;27.70;68.60;;;;;;5063809;28;20041;-49
2022/01/08 05:35:02;;;;;;;7.40;5.43;;;27.70;68.80;;;;;;5063816;28;20047;-44
2022/01/08 05:37:28;;;;;;;9.77;5.30;;;27.60;68.70;;;;;;5063999;28;20178;-46
2022/01/08 05:39:55;;;;;;;11.55;5.15;;;27.70;68.90;;;;;;5063887;28;20017;-46
2022/01/08 05:42:22;;;;;;;8.75;5.40;;;27.70;69.00;;;;;;5063771;28;20048;-44
2022/01/08 05:44:48;;;;;;;7.65;5.22;;;27.60;68.90;;;;;;5063799;28;20367;-43
2022/01/08 05:47:15;;;;;;;6.47;5.18;;;27.60;68.90;;;;;;5063847;28;20029;-50
2022/01/08 05:49:42;;;;;;;7.65;5.68;;;27.60;69.00;;;;;;5063521;28;20214;-47
2022/01/08 05:52:09;;;;;;;9.52;5.50;;;27.60;69.20;;;;;;5063606;28;20218;-55
2022/01/08 05:54:36;;;;;;;7.38;5.90;;;27.60;69.30;;;;;;5063745;28;20017;-47
2022/01/08 05:57:03;;;;;;;6.90;5.57;;;27.50;69.40;;;;;;5063524;28;20021;-48
2022/01/08 05:59:29;;;;;;;6.45;5.57;;;27.60;69.50;;;;;;5063704;28;20076;-49
2022/01/08 06:01:58;;;;;;;10.32;6.00;;;27.50;69.50;;;;;;5063552;28;20017;-52
2022/01/08 06:04:24;;;;;;;10.43;5.53;;;27.50;69.50;;;;;;5063446;28;20021;-47
2022/01/08 06:06:51;;;;;;;6.93;5.70;;;27.50;69.60;;;;;;5063480;28;20021;-49
2022/01/08 06:09:18;;;;;;;7.72;5.55;;;27.50;69.60;;;;;;5063593;28;20025;-47
2022/01/08 06:11:44;;;;;;;8.10;5.70;;;27.40;69.70;;;;;;5063428;28;20280;-48
2022/01/08 06:14:11;;;;;;;8.23;5.47;;;27.50;69.80;;;;;;5045995;28;20263;-46
2022/01/08 06:16:38;;;;;;;8.80;5.72;;;27.50;69.90;;;;;;5063647;28;20021;-55
2022/01/08 06:19:11;;;;;;;7.72;5.50;;;27.50;69.90;;;;;;5063259;28;20029;-44
2022/01/08 06:21:38;;;;;;;7.80;5.40;;;27.40;70.00;;;;;;5063567;28;20039;-47
2022/01/08 06:24:06;;;;;;;7.65;5.75;;;27.40;70.20;;;;;;5063898;28;20036;-50
2022/01/08 06:26:33;;;;;;;7.45;5.28;;;27.40;70.20;;;;;;5063339;28;20021;-52
2022/01/08 06:29:00;;;;;;;9.35;5.65;;;27.40;70.40;;;;;;5063871;28;20021;-45
2022/01/08 06:31:27;;;;;;;8.18;5.43;;;27.40;70.50;;;;;;5062365;28;20194;-44
2022/01/08 06:33:55;;;;;;;13.60;5.88;;;27.40;70.50;;;;;;5043152;28;20045;-46
2022/01/08 06:36:23;;;;;;;7.82;5.72;;;27.20;71.00;;;;;;5047275;28;20051;-50
2022/01/08 06:38:51;;;;;;;8.00;5.30;;;27.20;71.20;;;;;;5047560;28;20297;-53
2022/01/08 06:41:17;;;;;;;8.30;5.25;;;27.20;71.50;;;;;;5047080;28;20367;-47
2022/01/08 06:43:46;;;;;;;8.75;5.88;;;27.10;71.50;;;;;;5047492;28;20068;-50
2022/01/08 06:46:13;;;;;;;12.02;6.15;;;27.10;71.70;;;;;;5047024;28;20262;-49
2022/01/08 06:48:43;;;;;;;9.82;5.35;;;27.10;71.80;;;;;;5047166;28;20029;-45
2022/01/08 06:51:09;;;;;;;7.75;5.88;;;27.10;71.80;;;;;;5046969;28;20021;-48
2022/01/08 06:53:36;;;;;;;10.77;6.25;;;27.00;71.90;;;;;;5047317;28;20096;-48
2022/01/08 06:56:03;;;;;;;10.15;5.68;;;27.00;72.00;;;;;;5046843;28;20179;-50
2022/01/08 06:58:30;;;;;;;7.82;5.72;;;27.00;72.10;;;;;;5047319;28;20021;-54
2022/01/08 07:00:57;;;;;;;8.85;5.45;;;26.90;72.30;;;;;;5046749;28;20067;-43
2022/01/08 07:03:23;;;;;;;10.35;5.40;;;26.90;72.50;;;;;;5046595;28;20029;-52
2022/01/08 07:05:50;;;;;;;8.20;5.70;;;26.90;72.60;;;;;;5046681;28;20021;-46
2022/01/08 07:08:16;;;;;;;11.68;6.03;;;26.90;72.70;;;;;;5046969;28;20191;-48
2022/01/08 07:10:43;;;;;;;6.45;5.30;;;26.90;72.70;;;;;;5046478;28;20077;-46
2022/01/08 07:13:10;;;;;;;6.70;5.45;;;26.90;73.30;;;;;;5046890;28;20030;-50
2022/01/08 07:15:37;;;;;;;6.10;5.50;;;26.90;73.00;;;;;;5046685;28;20116;-46
2022/01/08 07:18:03;;;;;;;9.27;5.50;;;26.90;73.10;;;;;;5046548;28;20029;-49
2022/01/08 07:20:30;;;;;;;8.38;5.95;;;26.80;73.10;;;;;;5046329;28;20277;-62
2022/01/08 07:22:56;;;;;;;8.50;5.93;;;26.80;73.10;;;;;;5046690;28;20322;-47
2022/01/08 07:25:23;;;;;;;6.22;5.55;;;26.80;73.10;;;;;;5046295;28;20025;-48
2022/01/08 07:27:50;;;;;;;9.40;5.55;;;26.80;73.10;;;;;;5046500;28;20030;-47
2022/01/08 07:30:17;;;;;;;6.55;5.85;;;26.80;73.00;;;;;;5046311;28;20033;-51
2022/01/08 07:32:45;;;;;;;7.72;5.50;;;26.80;72.90;;;;;;5046051;28;20061;-56
2022/01/08 07:35:14;;;;;;;9.55;5.70;;;26.80;72.90;;;;;;5046453;28;20097;-48
2022/01/08 07:37:42;;;;;;;9.60;6.32;;;26.80;72.80;;;;;;5046202;28;20298;-46
2022/01/08 07:40:10;;;;;;;9.18;5.90;;;26.80;72.80;;;;;;5045857;28;20025;-43
2022/01/08 07:42:37;;;;;;;8.82;5.45;;;26.80;72.80;;;;;;5028408;28;20204;-44
2022/01/08 07:45:05;;;;;;;8.90;6.00;;;26.80;72.80;;;;;;5045774;28;20021;-44
2022/01/08 07:47:32;;;;;;;8.48;5.47;;;26.80;72.80;;;;;;5044978;28;20210;-44
2022/01/08 07:49:58;;;;;;;8.18;5.78;;;26.80;72.80;;;;;;5045966;28;20372;-47
2022/01/08 07:52:25;;;;;;;9.85;5.95;;;26.80;72.80;;;;;;5045942;28;20049;-45
2022/01/08 07:54:51;;;;;;;8.73;5.60;;;26.80;72.90;;;;;;5045823;28;20322;-44
2022/01/08 07:57:18;;;;;;;13.35;6.40;;;26.80;72.90;;;;;;5045847;28;20033;-54
2022/01/08 07:59:44;;;;;;;9.60;5.97;;;26.80;73.00;;;;;;5045818;28;20017;-45
2022/01/08 08:02:11;;;;;;;14.07;6.22;;;26.70;73.10;;;;;;5045669;28;20349;-51
2022/01/08 08:04:38;;;;;;;10.13;6.25;;;26.70;73.20;;;;;;5045580;28;20221;-49
2022/01/08 08:07:05;;;;;;;11.60;5.93;;;26.60;73.30;;;;;;5045674;28;20017;-52
2022/01/08 08:09:32;;;;;;;7.45;5.90;;;26.70;73.40;;;;;;5045615;28;20032;-46
2022/01/08 08:11:59;;;;;;;8.85;5.97;;;26.60;73.30;;;;;;5027672;28;20356;-51
2022/01/08 08:14:26;;;;;;;7.43;5.82;;;26.60;73.40;;;;;;5045426;28;20037;-52
2022/01/08 08:16:52;;;;;;;9.98;6.05;;;26.60;73.90;;;;;;5045375;28;20018;-47
2022/01/08 08:19:19;;;;;;;7.97;6.05;;;26.60;73.40;;;;;;5045230;28;20032;-57
2022/01/08 08:21:45;;;;;;;10.18;5.93;;;26.60;73.50;;;;;;5045399;28;20037;-45
2022/01/08 08:24:14;;;;;;;8.90;6.20;;;26.60;73.90;;;;;;5045801;28;20090;-50
2022/01/08 08:26:41;;;;;;;9.90;5.43;;;26.60;73.40;;;;;;5045078;28;20025;-53
2022/01/08 08:29:07;;;;;;;8.15;6.05;;;26.60;73.30;;;;;;5045670;28;20033;-49
2022/01/08 08:31:34;;;;;;;7.05;5.43;;;26.60;73.30;;;;;;5045247;28;20048;-52
2022/01/08 08:34:00;;;;;;;8.27;6.10;;;26.60;73.30;;;;;;5044827;28;20049;-49
2022/01/08 08:36:27;;;;;;;6.20;5.43;;;26.60;73.50;;;;;;5045136;28;20206;-44
2022/01/08 08:38:53;;;;;;;6.93;5.97;;;26.60;73.30;;;;;;5045551;28;20032;-48
2022/01/08 08:41:20;;;;;;;7.22;5.72;;;26.60;73.30;;;;;;5044860;28;20022;-45
2022/01/08 08:43:47;;;;;;;6.30;5.68;;;26.60;73.30;;;;;;5045358;28;20097;-51
2022/01/08 08:46:13;;;;;;;7.07;5.75;;;26.60;73.30;;;;;;5044909;28;20322;-46
2022/01/08 08:48:40;;;;;;;6.68;5.68;;;26.60;73.40;;;;;;5044538;28;20036;-52
2022/01/08 08:51:06;;;;;;;6.90;5.63;;;26.50;73.40;;;;;;5044497;28;20047;-43
2022/01/08 08:53:33;;;;;;;7.75;5.65;;;26.60;73.40;;;;;;5044969;28;20029;-47
2022/01/08 08:56:00;;;;;;;6.68;5.63;;;26.60;73.30;;;;;;5044614;28;20263;-46
2022/01/08 08:58:26;;;;;;;7.38;5.32;;;26.50;73.40;;;;;;5044453;28;20029;-52
2022/01/08 09:00:53;;;;;;;8.82;5.90;;;26.50;73.40;;;;;;5044686;28;20017;-47
2022/01/08 09:03:20;;;;;;;7.80;6.05;;;26.50;73.50;;;;;;5044752;28;20202;-47
2022/01/08 09:05:47;;;;;;;7.35;5.93;;;26.50;73.50;;;;;;5044443;28;20021;-49
2022/01/08 09:08:14;;;;;;;7.47;5.80;;;26.50;73.50;;;;;;5044718;28;20030;-49
2022/01/08 09:10:41;;;;;;;11.43;6.20;;;26.50;73.70;;;;;;5044283;28;20022;-55
2022/01/08 09:13:07;;;;;;;7.90;6.35;;;26.50;73.70;;;;;;5044499;28;20325;-55
2022/01/08 09:15:40;;;;;;;10.02;6.28;;;26.50;73.80;;;;;;5044241;28;20044;-43
2022/01/08 09:18:07;;;;;;;7.85;5.93;;;26.40;73.70;;;;;;5044238;28;20029;-43
2022/01/08 09:20:34;;;;;;;9.27;5.85;;;26.40;73.70;;;;;;5044068;28;20028;-57
2022/01/08 09:23:00;;;;;;;8.35;6.05;;;26.40;73.90;;;;;;5044258;28;20052;-49
2022/01/08 09:25:27;;;;;;;12.07;6.38;;;26.40;73.90;;;;;;5044059;28;20017;-46
2022/01/08 09:27:54;;;;;;;9.30;6.05;;;26.30;74.00;;;;;;5044346;28;20035;-48
2022/01/08 09:30:21;;;;;;;10.45;6.07;;;26.30;74.00;;;;;;5044063;28;20314;-45
2022/01/08 09:32:47;;;;;;;13.07;6.43;;;26.40;74.00;;;;;;5043663;28;20057;-50
2022/01/08 09:35:15;;;;;;;11.20;6.30;;;26.30;73.90;;;;;;5044061;28;20055;-44
2022/01/08 09:37:42;;;;;;;11.52;6.65;;;26.30;73.80;;;;;;5044040;28;20295;-49
2022/01/08 09:40:12;;;;;;;12.80;6.28;;;26.30;73.60;;;;;;5043657;28;20262;-46
2022/01/08 09:42:41;;;;;;;8.27;6.43;;;26.40;73.50;;;;;;5044137;28;20051;-54
2022/01/08 09:45:09;;;;;;;14.05;6.85;;;26.40;73.40;;;;;;5043838;28;20044;-43
2022/01/08 09:47:36;;;;;;;11.32;6.65;;;26.30;73.40;;;;;;5043832;28;20044;-44
2022/01/08 09:50:04;;;;;;;11.55;6.38;;;26.30;73.40;;;;;;5043825;28;20017;-44
2022/01/08 09:52:32;;;;;;;14.93;6.68;;;26.30;73.40;;;;;;5043945;28;20021;-48
2022/01/08 09:55:00;;;;;;;11.20;6.72;;;26.30;73.50;;;;;;5043655;28;20020;-51
2022/01/08 09:57:26;;;;;;;10.73;6.63;;;26.30;73.60;;;;;;5043870;28;20330;-47
2022/01/08 09:59:53;;;;;;;9.48;6.50;;;26.30;73.50;;;;;;5043751;28;20089;-53
2022/01/08 10:02:23;;;;;;;8.45;6.82;;;26.30;73.60;;;;;;5043632;28;20029;-52
2022/01/08 10:04:50;;;;;;;57.53;8.27;;;26.30;73.60;;;;;;5043762;28;20025;-46
2022/01/08 10:07:27;;;;;;;22.08;7.05;;;26.30;73.70;;;;;;5043746;28;20049;-43
2022/01/08 10:10:15;;;;;;;14.45;7.00;;;26.30;73.70;;;;;;5045331;28;20210;-45
2022/01/08 10:12:59;;;;;;;22.70;6.63;;;26.30;73.60;;;;;;5047826;28;20264;-52
2022/01/08 10:18:30;;;;;;;24.58;7.55;;;26.30;73.50;;;;;;5047918;28;20072;-43
2022/01/08 10:20:57;;;;;;;18.40;6.85;;;26.30;73.50;;;;;;5047542;28;20037;-53
2022/01/08 10:23:27;;;;;;;16.98;6.95;;;26.30;73.40;;;;;;5047629;28;20033;-45
2022/01/08 10:26:08;;;;;;;15.75;6.93;;;26.30;73.20;;;;;;5047438;28;20025;-45
2022/01/08 10:29:03;;;;;;;14.57;6.57;;;26.30;73.10;;;;;;5047703;28;20021;-44
2022/01/08 10:31:47;;;;;;;16.75;7.10;;;26.30;72.90;;;;;;5046064;28;20057;-46
2022/01/08 10:34:21;;;;;;;10.18;6.55;;;26.40;72.90;;;;;;5046966;28;20112;-53
2022/01/08 10:36:49;;;;;;;12.10;6.65;;;26.40;72.90;;;;;;5047442;28;20214;-53
2022/01/08 10:39:27;;;;;;;14.00;6.63;;;26.40;72.90;;;;;;5047319;28;20314;-53
2022/01/08 10:41:55;;;;;;;12.13;6.72;;;26.40;72.80;;;;;;5047991;28;20314;-48
2022/01/08 10:44:28;;;;;;;12.77;6.97;;;26.30;72.60;;;;;;5047054;28;20026;-49
2022/01/08 10:46:57;;;;;;;12.32;6.80;;;26.40;72.50;;;;;;5047038;28;20017;-44
2022/01/08 10:49:43;;;;;;;9.55;7.22;;;26.40;72.50;;;;;;5047221;28;20046;-43
2022/01/08 10:52:17;;;;;;;11.55;6.57;;;26.40;72.40;;;;;;5047004;28;20025;-44
2022/01/08 10:54:46;;;;;;;13.35;7.45;;;26.40;72.40;;;;;;5047075;28;20025;-45
2022/01/08 10:57:14;;;;;;;11.95;7.10;;;26.40;72.30;;;;;;5046891;28;20021;-49
2022/01/08 10:59:43;;;;;;;13.32;7.28;;;26.40;72.30;;;;;;5046904;28;20385;-49
2022/01/08 11:02:16;;;;;;;18.95;8.00;;;26.40;72.30;;;;;;5046837;28;20025;-50
2022/01/08 11:04:52;;;;;;;12.38;7.40;;;26.40;72.20;;;;;;5046918;28;20017;-47
2022/01/08 11:07:23;;;;;;;15.52;7.82;;;26.40;72.40;;;;;;5046783;28;20029;-44
2022/01/08 11:09:52;;;;;;;9.30;6.68;;;26.40;72.40;;;;;;5046426;28;20234;-49
2022/01/08 11:12:31;;;;;;;13.32;6.95;;;26.40;72.40;;;;;;5046458;28;20038;-46
2022/01/08 11:17:47;;;;;;;21.20;7.55;;;26.40;72.50;;;;;;5046461;28;20025;-56
2022/01/08 11:20:28;;;;;;;16.02;7.55;;;26.40;72.40;;;;;;5045852;28;20045;-47
2022/01/08 11:22:57;;;;;;;14.27;7.00;;;26.40;72.30;;;;;;5046659;28;20030;-51
2022/01/08 11:25:34;;;;;;;14.35;6.90;;;26.40;72.40;;;;;;5046274;28;20025;-43
2022/01/08 11:28:15;;;;;;;15.57;7.30;;;26.40;72.40;;;;;;5028748;28;20045;-48
2022/01/08 11:30:43;;;;;;;15.30;7.43;;;26.40;72.30;;;;;;5028393;28;20021;-46
2022/01/08 11:33:16;;;;;;;15.60;7.50;;;26.40;72.40;;;;;;5045964;28;20061;-47
2022/01/08 11:35:45;;;;;;;12.82;7.22;;;26.40;72.40;;;;;;5046225;28;20021;-51
2022/01/08 11:38:14;;;;;;;16.20;7.60;;;26.40;72.50;;;;;;5046295;28;20029;-44
2022/01/08 11:40:44;;;;;;;12.18;7.32;;;26.40;72.50;;;;;;5046208;28;20214;-53
2022/01/08 11:43:14;;;;;;;19.55;7.65;;;26.40;72.50;;;;;;5046067;28;20029;-49
2022/01/08 11:45:53;;;;;;;15.20;8.38;;;26.50;72.50;;;;;;5046116;28;20037;-48
2022/01/08 11:48:25;;;;;;;15.88;7.70;;;26.50;72.50;;;;;;5046238;28;20040;-50
2022/01/08 11:50:57;;;;;;;15.55;7.90;;;26.50;72.50;;;;;;5045752;28;20049;-44
2022/01/08 11:53:30;;;;;;;13.85;7.60;;;26.50;72.40;;;;;;5046322;28;20047;-46
2022/01/08 11:56:03;;;;;;;11.50;7.68;;;26.50;72.40;;;;;;5045770;28;20322;-49
2022/01/08 11:58:31;;;;;;;22.52;7.85;;;26.60;72.40;;;;;;5046419;28;20029;-43
2022/01/08 12:01:13;;;;;;;15.95;7.63;;;26.50;72.40;;;;;;5045852;28;20032;-49
2022/01/08 12:03:51;;;;;;;14.88;7.47;;;26.60;72.50;;;;;;5046523;28;20041;-53
2022/01/08 12:06:32;;;;;;;13.18;8.10;;;26.60;72.40;;;;;;5045635;28;20067;-50
2022/01/08 12:11:42;;;;;;;13.68;7.40;;;26.60;72.30;;;;;;5045316;28;20075;-46
2022/01/08 12:14:12;;;;;;;15.48;8.13;;;26.60;72.20;;;;;;5045921;28;20043;-45
2022/01/08 12:16:41;;;;;;;18.20;8.05;;;26.70;72.40;;;;;;5045378;28;20017;-52
2022/01/08 12:19:26;;;;;;;18.05;8.20;;;26.70;72.30;;;;;;5045197;28;20025;-66
2022/01/08 12:21:53;;;;;;;18.35;8.10;;;26.60;72.40;;;;;;5045220;28;20013;-46
2022/01/08 12:24:28;;;;;;;20.10;8.35;;;26.70;72.40;;;;;;5045220;28;20021;-50
2022/01/08 12:27:02;;;;;;;14.73;8.30;;;26.70;72.40;;;;;;5045218;28;20021;-48
2022/01/08 12:29:42;;;;;;;16.25;7.97;;;26.70;72.30;;;;;;5045180;28;20105;-49
2022/01/08 12:32:35;;;;;;;16.45;7.70;;;26.80;72.40;;;;;;5044078;28;20021;-56
2022/01/08 12:35:24;;;;;;;17.08;8.23;;;26.80;72.40;;;;;;5044861;28;20314;-50
2022/01/08 12:37:56;;;;;;;11.90;7.82;;;26.80;72.50;;;;;;5045146;28;20278;-53
2022/01/08 12:40:50;;;;;;;12.63;7.85;;;26.80;72.50;;;;;;5044942;28;20088;-45
2022/01/08 12:43:23;;;;;;;15.38;7.93;;;26.80;72.50;;;;;;5041193;28;20073;-45
2022/01/08 12:45:52;;;;;;;17.92;8.65;;;26.80;72.50;;;;;;5045056;28;20022;-46
2022/01/08 12:48:20;;;;;;;14.50;7.70;;;26.90;72.60;;;;;;5045260;28;20025;-51
2022/01/08 12:50:46;;;;;;;14.07;7.80;;;26.90;72.50;;;;;;5044553;28;20024;-49
2022/01/08 12:53:15;;;;;;;21.08;8.30;;;26.90;72.50;;;;;;5027234;28;20329;-54
2022/01/08 12:55:57;;;;;;;16.23;7.82;;;26.90;72.40;;;;;;5027565;28;20307;-49
2022/01/08 12:58:45;;;;;;;12.27;7.95;;;26.90;72.40;;;;;;5046209;28;20030;-50
2022/01/08 13:01:23;;;;;;;13.57;8.00;;;27.00;72.50;;;;;;5044438;28;20317;-45
2022/01/08 13:03:55;;;;;;;13.27;8.13;;;27.00;72.40;;;;;;5044491;28;20116;-45
2022/01/08 13:06:26;;;;;;;17.27;7.95;;;27.00;72.40;;;;;;5044403;28;20025;-45
2022/01/08 13:08:54;;;;;;;16.50;7.47;;;27.00;72.50;;;;;;5044960;28;20021;-47
2022/01/08 13:11:31;;;;;;;18.33;8.00;;;27.00;72.50;;;;;;5044654;28;20222;-45
2022/01/08 13:14:06;;;;;;;13.23;7.78;;;27.00;72.40;;;;;;5045782;28;20112;-43
2022/01/08 13:16:51;;;;;;;16.75;7.95;;;27.10;72.50;;;;;;5027941;28;20253;-42
2022/01/08 13:19:25;;;;;;;12.93;8.27;;;27.10;72.60;;;;;;5045414;28;20026;-50
2022/01/08 13:21:57;;;;;;;15.98;7.85;;;27.10;72.60;;;;;;5045895;28;20023;-43
2022/01/08 13:24:28;;;;;;;;;;;27.10;72.70;;;;;;5045400;28;20128;-43
2022/01/08 13:27:11;;;;;;;10.65;7.70;;;27.10;72.70;;;;;;5028467;28;19901;-47